createdAt,value
2022-08-02T00:01:17.477Z,23.80
2022-08-02T00:06:19.912Z,23.80
2022-08-02T00:11:22.248Z,23.80
2022-08-02T00:16:37.987Z,23.70
2022-08-02T00:21:40.831Z,23.70
2022-08-02T00:26:43.112Z,23.60
2022-08-02T00:31:45.351Z,23.60
2022-08-02T00:36:47.570Z,23.60
2022-08-02T00:41:54.376Z,23.60
2022-08-02T00:46:56.644Z,23.50
2022-08-02T00:51:58.923Z,23.50
2022-08-02T00:57:01.153Z,23.60
2022-08-02T01:02:03.606Z,23.50
2022-08-02T01:07:12.600Z,23.50
2022-08-02T01:12:16.709Z,23.50
2022-08-02T01:17:27.916Z,23.50
2022-08-02T01:22:59.559Z,23.40
2022-08-02T01:28:20.617Z,23.40
2022-08-02T01:33:26.889Z,23.30
2022-08-02T01:38:35.616Z,23.30
2022-08-02T01:43:40.342Z,23.30
2022-08-02T01:48:44.823Z,23.30
2022-08-02T01:53:51.287Z,23.20
2022-08-02T01:58:55.230Z,23.10
2022-08-02T02:03:58.281Z,23.00
2022-08-02T02:09:02.226Z,23.00
2022-08-02T02:14:07.875Z,22.90
2022-08-02T02:19:12.904Z,22.90
2022-08-02T02:24:23.620Z,22.90
2022-08-02T02:29:29.879Z,23.00
2022-08-02T02:34:38.188Z,22.90
2022-08-02T02:39:43.151Z,23.00
2022-08-02T02:44:47.603Z,23.00
2022-08-02T02:49:52.256Z,22.90
2022-08-02T02:54:55.814Z,22.90
2022-08-02T02:59:58.832Z,22.80
2022-08-02T03:05:04.010Z,22.80
2022-08-02T03:10:07.843Z,22.90
2022-08-02T03:15:13.036Z,22.80
2022-08-02T03:20:18.114Z,22.80
2022-08-02T03:25:20.482Z,22.80
2022-08-02T03:30:26.945Z,22.80
2022-08-02T03:35:29.255Z,22.80
2022-08-02T03:40:32.048Z,22.70
2022-08-02T03:45:34.656Z,22.70
2022-08-02T03:50:37.607Z,22.60
2022-08-02T03:55:40.701Z,22.60
2022-08-02T04:00:42.996Z,22.60
2022-08-02T04:06:00.780Z,22.60
2022-08-02T04:11:27.059Z,22.70
2022-08-02T04:16:39.825Z,22.70
2022-08-02T04:21:51.611Z,22.60
2022-08-02T04:26:57.926Z,22.60
2022-08-02T04:32:10.042Z,22.60
2022-08-02T04:37:14.243Z,22.60
2022-08-02T04:42:26.268Z,22.70
2022-08-02T04:48:02.531Z,22.60
2022-08-02T04:52:50.806Z,22.80
2022-08-02T04:57:56.369Z,22.70
2022-08-02T05:02:59.558Z,22.90
2022-08-02T05:08:02.115Z,22.90
2022-08-02T05:13:05.853Z,22.80
2022-08-02T05:18:08.430Z,22.80
2022-08-02T05:23:10.738Z,22.90
2022-08-02T05:28:13.103Z,23.00
2022-08-02T05:33:15.340Z,23.00
2022-08-02T05:38:17.595Z,23.20
2022-08-02T05:43:25.776Z,23.10
2022-08-02T05:48:31.845Z,23.10
2022-08-02T05:53:46.099Z,23.20
2022-08-02T05:58:56.623Z,23.40
2022-08-02T06:04:01.031Z,23.30
2022-08-02T06:09:09.904Z,23.50
2022-08-02T06:14:13.293Z,23.60
2022-08-02T06:19:18.157Z,23.70
2022-08-02T06:24:20.844Z,23.90
2022-08-02T06:29:24.854Z,24.50
2022-08-02T06:34:27.106Z,24.60
2022-08-02T06:39:43.663Z,24.90
2022-08-02T06:44:49.532Z,25.30
2022-08-02T06:49:54.308Z,25.70
2022-08-02T06:54:59.694Z,26.00
2022-08-02T07:00:05.020Z,26.30
2022-08-02T07:05:08.754Z,27.20
2022-08-02T07:10:11.089Z,28.10
2022-08-02T07:15:13.890Z,28.60
2022-08-02T07:20:16.309Z,29.10
2022-08-02T07:25:18.584Z,30.10
2022-08-02T07:30:20.804Z,30.70
2022-08-02T07:35:23.159Z,30.70
2022-08-02T07:40:28.845Z,31.00
2022-08-02T07:45:32.638Z,31.10
2022-08-02T07:50:35.207Z,31.10
2022-08-02T07:55:40.325Z,30.90
2022-08-02T08:00:44.081Z,30.80
2022-08-02T08:05:47.376Z,30.80
2022-08-02T08:10:49.664Z,30.70
2022-08-02T08:15:52.730Z,30.60
2022-08-02T08:20:55.194Z,30.60
2022-08-02T08:25:57.446Z,30.30
2022-08-02T08:30:59.773Z,30.20
2022-08-02T08:36:02.625Z,30.00
2022-08-02T08:41:05.153Z,30.00
2022-08-02T08:46:17.354Z,30.10
2022-08-02T08:51:22.772Z,30.20
2022-08-02T08:56:33.327Z,30.40
2022-08-02T09:01:50.009Z,30.50
2022-08-02T09:06:53.045Z,30.50
2022-08-02T09:11:55.311Z,30.70
2022-08-02T09:17:14.331Z,30.80
2022-08-02T09:22:19.527Z,30.60
2022-08-02T09:27:23.523Z,30.60
2022-08-02T09:32:29.727Z,30.70
2022-08-02T09:37:32.067Z,30.70
2022-08-02T09:42:34.327Z,30.70
2022-08-02T09:47:37.306Z,30.60
2022-08-02T09:52:44.070Z,30.40
2022-08-02T09:57:51.108Z,30.50
2022-08-02T10:03:14.889Z,30.30
2022-08-02T10:08:26.669Z,30.40
2022-08-02T10:13:34.757Z,30.20
2022-08-02T10:18:39.493Z,30.20
2022-08-02T10:23:44.760Z,30.20
2022-08-02T10:28:50.002Z,30.30
2022-08-02T10:33:54.177Z,30.40
2022-08-02T10:38:58.719Z,30.20
2022-08-02T10:44:01.494Z,30.30
2022-08-02T10:49:29.666Z,30.30
2022-08-02T10:54:41.173Z,30.30
2022-08-02T10:59:44.187Z,30.30
2022-08-02T11:04:46.394Z,30.20
2022-08-02T11:09:51.057Z,30.30
2022-08-02T11:15:07.323Z,30.20
2022-08-02T11:20:11.577Z,30.20
2022-08-02T11:25:54.399Z,30.40
2022-08-02T11:31:01.652Z,30.30
2022-08-02T11:36:07.444Z,30.20
2022-08-02T11:41:10.954Z,30.20
2022-08-02T11:46:14.774Z,30.20
2022-08-02T11:51:18.476Z,30.40
2022-08-02T11:56:32.693Z,30.30
2022-08-02T12:01:45.572Z,30.50
2022-08-02T12:06:59.066Z,30.50
2022-08-02T12:12:02.299Z,30.40
2022-08-02T12:17:24.451Z,30.40
2022-08-02T12:22:27.967Z,30.40
2022-08-02T12:27:33.869Z,30.40
2022-08-02T12:32:37.122Z,30.60
2022-08-02T12:37:42.703Z,30.50
2022-08-02T12:42:47.652Z,30.40
2022-08-02T12:47:54.765Z,30.40
2022-08-02T12:53:15.444Z,30.50
2022-08-02T12:58:18.011Z,30.50
2022-08-02T13:04:10.221Z,30.50
2022-08-02T13:08:42.732Z,30.40
2022-08-02T13:13:45.019Z,30.50
2022-08-02T13:18:47.288Z,30.60
2022-08-02T13:23:53.932Z,30.80
2022-08-02T13:28:57.796Z,30.60
2022-08-02T13:34:00.711Z,30.40
2022-08-02T13:39:04.607Z,30.50
2022-08-02T13:44:10.338Z,30.60
2022-08-02T13:49:18.861Z,30.70
2022-08-02T13:54:22.021Z,30.60
2022-08-02T13:59:55.865Z,30.50
2022-08-02T14:04:46.797Z,30.50
2022-08-02T14:09:50.075Z,30.50
2022-08-02T14:14:52.436Z,30.40
2022-08-02T14:19:54.711Z,30.40
2022-08-02T14:24:56.980Z,30.40
2022-08-02T14:29:59.440Z,30.20
2022-08-02T14:35:01.708Z,30.10
2022-08-02T14:40:04.664Z,29.80
2022-08-02T14:45:07.310Z,29.80
2022-08-02T14:50:09.764Z,29.10
2022-08-02T14:55:17.032Z,28.40
2022-08-02T15:00:19.615Z,28.10
2022-08-02T15:05:21.920Z,27.70
2022-08-02T15:10:24.192Z,27.30
2022-08-02T15:15:26.432Z,27.10
2022-08-02T15:20:28.731Z,26.50
2022-08-02T15:25:31.040Z,26.30
2022-08-02T15:30:35.376Z,26.10
2022-08-02T15:35:37.635Z,25.90
2022-08-02T15:40:40.019Z,25.60
2022-08-02T15:45:42.423Z,25.40
2022-08-02T15:50:44.971Z,25.20
2022-08-02T15:56:04.271Z,25.20
2022-08-02T16:01:08.925Z,25.10
2022-08-02T16:06:11.903Z,25.10
2022-08-02T16:11:16.379Z,25.00
2022-08-02T16:16:19.144Z,24.80
2022-08-02T16:21:23.531Z,24.90
2022-08-02T16:26:26.559Z,24.70
2022-08-02T16:31:28.810Z,24.70
2022-08-02T16:36:31.125Z,24.70
2022-08-02T16:41:51.318Z,24.70
2022-08-02T16:46:55.161Z,24.70
2022-08-02T16:51:57.404Z,24.60
2022-08-02T16:56:59.668Z,24.50
2022-08-02T17:02:12.038Z,24.60
2022-08-02T17:08:07.529Z,24.60
2022-08-02T17:12:42.859Z,24.60
2022-08-02T17:17:45.394Z,24.50
2022-08-02T17:22:48.363Z,24.60
2022-08-02T17:27:55.710Z,24.50
2022-08-02T17:38:26.718Z,24.60
2022-08-02T17:43:30.052Z,24.50
2022-08-02T17:54:15.027Z,24.70
2022-08-02T17:59:30.730Z,25.00
2022-08-02T18:04:43.657Z,25.20
2022-08-02T18:09:48.609Z,25.30
2022-08-02T18:14:52.504Z,25.40
2022-08-02T18:19:59.283Z,25.50
2022-08-02T18:25:09.462Z,25.50
2022-08-02T18:30:12.631Z,25.50
2022-08-02T18:35:14.896Z,25.50
2022-08-02T18:40:17.167Z,25.50
2022-08-02T18:45:20.407Z,25.40
2022-08-02T18:50:22.795Z,25.40
2022-08-02T18:56:00.021Z,25.40
2022-08-02T19:00:51.533Z,25.40
2022-08-02T19:05:54.362Z,25.40
2022-08-02T19:10:57.403Z,25.40
2022-08-02T19:16:04.764Z,25.40
2022-08-02T19:21:08.031Z,25.30
2022-08-02T19:26:10.977Z,25.40
2022-08-02T19:31:17.483Z,25.40
2022-08-02T19:36:21.713Z,25.40
2022-08-02T19:41:27.776Z,25.40
2022-08-02T19:46:49.117Z,25.40
2022-08-02T19:51:54.940Z,25.30
2022-08-02T19:56:57.669Z,25.20
2022-08-02T20:02:01.038Z,25.20
2022-08-02T20:07:04.795Z,25.20
2022-08-02T20:12:07.136Z,25.20
2022-08-02T20:17:12.427Z,25.10
2022-08-02T20:22:15.990Z,25.10
2022-08-02T20:27:23.793Z,25.10
2022-08-02T20:32:28.144Z,25.10
2022-08-02T20:38:01.382Z,25.00
2022-08-02T20:42:54.321Z,25.10
2022-08-02T20:47:58.545Z,25.10
2022-08-02T20:53:04.063Z,25.10
2022-08-02T20:58:06.558Z,25.10
2022-08-02T21:03:15.914Z,25.20
2022-08-02T21:08:21.916Z,25.10
2022-08-02T21:13:26.276Z,25.20
2022-08-02T21:18:40.103Z,25.20
2022-08-02T21:23:48.479Z,25.10
2022-08-02T21:28:51.565Z,25.00
2022-08-02T21:33:59.410Z,24.90
2022-08-02T21:39:08.848Z,24.90
2022-08-02T21:44:11.307Z,24.80
2022-08-02T21:49:14.821Z,24.80
2022-08-02T21:54:21.386Z,24.80
2022-08-02T21:59:25.508Z,24.60
2022-08-02T22:04:28.824Z,24.60
2022-08-02T22:09:43.394Z,24.50
2022-08-02T22:14:53.974Z,24.60
2022-08-02T22:19:57.528Z,24.60
2022-08-02T22:24:59.835Z,24.50
2022-08-02T22:30:04.526Z,24.60
2022-08-02T22:35:08.862Z,24.60
2022-08-02T22:40:13.339Z,24.60
2022-08-02T22:45:15.592Z,24.60
2022-08-02T22:50:18.019Z,24.60
2022-08-02T22:55:21.537Z,24.60
2022-08-02T22:58:39.111Z,24.50
2022-08-02T22:58:49.322Z,24.50
2022-08-02T23:00:26.564Z,24.60
2022-08-02T23:05:28.901Z,24.50
2022-08-02T23:10:31.270Z,24.50
2022-08-02T23:15:53.436Z,24.40
2022-08-02T23:20:56.849Z,24.40
2022-08-02T23:25:59.139Z,24.30
2022-08-02T23:31:01.856Z,24.30
2022-08-02T23:36:04.446Z,24.20
2022-08-02T23:41:06.687Z,24.20
2022-08-02T23:46:08.948Z,24.20
2022-08-02T23:51:11.279Z,24.10
2022-08-02T23:56:24.368Z,24.10
